createdAt,value
2023-04-19T00:01:31.559Z,32.94
2023-04-19T00:06:53.339Z,33.30
2023-04-19T00:12:15.094Z,32.95
2023-04-19T00:17:36.940Z,33.11
2023-04-19T00:22:59.459Z,33.42
2023-04-19T00:28:21.313Z,33.39
2023-04-19T00:33:43.094Z,32.98
2023-04-19T00:39:04.868Z,33.00
2023-04-19T00:44:26.815Z,32.95
2023-04-19T00:49:48.638Z,32.94
2023-04-19T00:55:10.568Z,33.09
2023-04-19T01:00:32.887Z,32.92
2023-04-19T01:05:55.555Z,33.41
2023-04-19T01:11:17.349Z,33.01
2023-04-19T01:16:39.541Z,33.32
2023-04-19T01:22:03.331Z,33.20
2023-04-19T01:27:25.281Z,33.38
2023-04-19T01:32:47.087Z,33.43
2023-04-19T01:38:09.018Z,33.34
2023-04-19T01:43:30.858Z,33.15
2023-04-19T01:48:52.649Z,33.45
2023-04-19T01:54:14.707Z,33.34
2023-04-19T01:59:36.891Z,33.34
2023-04-19T02:04:58.632Z,33.44
2023-04-19T02:10:20.750Z,33.34
2023-04-19T02:15:42.511Z,33.12
2023-04-19T02:21:06.201Z,33.55
2023-04-19T02:26:28.012Z,33.12
2023-04-19T02:31:50.514Z,33.36
2023-04-19T02:37:12.356Z,33.47
2023-04-19T02:42:34.168Z,33.55
2023-04-19T02:47:56.043Z,33.27
2023-04-19T02:53:17.923Z,33.38
2023-04-19T02:58:39.746Z,33.31
2023-04-19T03:04:01.559Z,33.57
2023-04-19T03:09:23.321Z,33.57
2023-04-19T03:14:45.919Z,33.70
2023-04-19T03:20:12.101Z,33.32
2023-04-19T03:25:34.293Z,33.35
2023-04-19T03:30:56.329Z,33.39
2023-04-19T03:36:18.176Z,33.79
2023-04-19T03:41:40.946Z,33.79
2023-04-19T03:47:02.789Z,33.42
2023-04-19T03:52:26.143Z,33.86
2023-04-19T03:57:47.951Z,33.68
2023-04-19T04:03:10.058Z,33.91
2023-04-19T04:08:31.934Z,33.66
2023-04-19T04:13:54.894Z,33.81
2023-04-19T04:19:17.580Z,33.92
2023-04-19T04:24:41.670Z,33.54
2023-04-19T04:30:04.175Z,33.56
2023-04-19T04:35:26.465Z,33.87
2023-04-19T04:40:53.956Z,33.98
2023-04-19T04:46:15.762Z,33.70
2023-04-19T04:51:38.054Z,33.68
2023-04-19T04:57:00.005Z,34.04
2023-04-19T05:02:22.827Z,33.63
2023-04-19T05:07:44.675Z,33.66
2023-04-19T05:13:06.448Z,33.75
2023-04-19T05:18:28.212Z,33.51
2023-04-19T05:23:50.274Z,33.48
2023-04-19T05:29:12.040Z,32.96
2023-04-19T05:34:34.287Z,33.22
2023-04-19T05:39:56.211Z,32.95
2023-04-19T05:45:19.204Z,33.20
2023-04-19T05:50:40.997Z,33.07
2023-04-19T05:56:02.766Z,33.58
2023-04-19T06:01:24.761Z,33.50
2023-04-19T06:06:46.546Z,33.36
2023-04-19T06:12:08.386Z,33.73
2023-04-19T06:17:31.464Z,33.93
2023-04-19T06:22:53.431Z,33.70
2023-04-19T06:28:15.403Z,34.03
2023-04-19T06:33:37.335Z,34.00
2023-04-19T06:38:59.206Z,33.95
2023-04-19T06:44:21.010Z,33.87
2023-04-19T06:49:42.757Z,33.72
2023-04-19T06:55:06.519Z,33.79
2023-04-19T07:00:28.446Z,33.64
2023-04-19T07:05:52.432Z,34.09
2023-04-19T07:11:14.260Z,33.82
2023-04-19T07:16:36.163Z,33.23
2023-04-19T07:21:57.980Z,33.04
2023-04-19T07:27:20.191Z,33.00
2023-04-19T07:32:42.226Z,33.04
2023-04-19T07:38:04.153Z,32.87
2023-04-19T07:43:26.411Z,32.93
2023-04-19T07:48:48.316Z,32.65
2023-04-19T07:54:10.734Z,32.80
2023-04-19T07:59:33.724Z,32.55
2023-04-19T08:04:55.891Z,32.82
2023-04-19T08:10:18.839Z,32.47
2023-04-19T08:21:05.625Z,32.38
2023-04-19T08:26:27.544Z,32.38
2023-04-19T08:31:49.728Z,32.17
2023-04-19T08:37:11.548Z,32.17
2023-04-19T08:42:36.766Z,32.58
2023-04-19T08:48:02.067Z,32.51
2023-04-19T08:53:26.109Z,32.23
2023-04-19T09:09:45.743Z,32.38
2023-04-19T09:15:13.595Z,32.33
2023-04-19T09:20:39.114Z,32.10
2023-04-19T09:31:47.977Z,32.54
2023-04-19T09:37:24.909Z,32.26
2023-04-19T09:43:08.830Z,32.19
2023-04-19T09:48:37.812Z,32.53
2023-04-19T09:53:59.593Z,32.17
2023-04-19T09:59:21.680Z,32.28
2023-04-19T10:10:20.464Z,32.74
2023-04-19T10:15:53.645Z,32.35
2023-04-19T10:21:28.917Z,32.84
2023-04-19T10:27:12.755Z,32.55
2023-04-19T10:32:42.451Z,33.00
2023-04-19T10:38:16.620Z,32.93
2023-04-19T10:43:39.583Z,32.59
2023-04-19T10:49:02.632Z,32.67
2023-04-19T10:54:32.948Z,32.56
2023-04-19T11:00:26.004Z,32.47
2023-04-19T11:06:16.888Z,32.46
2023-04-19T11:11:38.922Z,32.50
2023-04-19T11:17:03.085Z,32.38
2023-04-19T11:22:38.101Z,32.14
2023-04-19T11:28:00.651Z,32.09
2023-04-19T11:33:25.980Z,31.58
2023-04-19T11:38:49.032Z,31.60
2023-04-19T11:44:28.719Z,31.73
2023-04-19T11:49:50.648Z,31.08
2023-04-19T11:55:19.084Z,30.84
2023-04-19T12:00:47.333Z,30.60
2023-04-19T12:06:18.972Z,31.11
2023-04-19T12:11:50.409Z,30.54
2023-04-19T12:17:17.003Z,30.46
2023-04-19T12:22:38.829Z,30.68
2023-04-19T12:28:04.052Z,30.79
2023-04-19T12:33:25.903Z,30.26
2023-04-19T12:38:47.796Z,30.05
2023-04-19T12:44:09.690Z,30.30
2023-04-19T12:49:31.832Z,29.82
2023-04-19T12:54:53.889Z,29.23
2023-04-19T13:05:38.258Z,29.10
2023-04-19T13:11:00.101Z,28.99
2023-04-19T13:16:22.843Z,28.80
2023-04-19T13:21:44.992Z,28.98
2023-04-19T13:27:08.768Z,28.50
2023-04-19T13:32:30.986Z,28.21
2023-04-19T13:37:53.464Z,27.74
2023-04-19T13:43:15.523Z,27.57
2023-04-19T13:48:37.341Z,27.65
2023-04-19T13:53:59.169Z,27.02
2023-04-19T13:59:21.972Z,26.68
2023-04-19T14:04:43.728Z,26.75
2023-04-19T14:10:07.408Z,26.47
2023-04-19T14:15:29.355Z,26.34
2023-04-19T14:20:51.176Z,26.07
2023-04-19T14:26:13.300Z,26.03
2023-04-19T14:31:35.237Z,25.83
2023-04-19T14:36:57.035Z,25.96
2023-04-19T14:42:22.099Z,26.42
2023-04-19T14:47:44.640Z,26.39
2023-04-19T14:53:06.617Z,26.03
2023-04-19T14:58:28.674Z,25.85
2023-04-19T15:03:50.728Z,25.78
2023-04-19T15:09:13.370Z,25.89
2023-04-19T15:14:35.874Z,25.45
2023-04-19T15:19:58.827Z,25.30
2023-04-19T15:25:20.685Z,25.55
2023-04-19T15:30:42.455Z,25.70
2023-04-19T15:36:04.569Z,25.73
2023-04-19T15:41:26.475Z,25.85
2023-04-19T15:46:48.300Z,26.14
2023-04-19T15:52:10.174Z,26.04
2023-04-19T15:57:32.007Z,26.75
2023-04-19T16:02:54.140Z,25.82
2023-04-19T16:08:19.540Z,26.09
2023-04-19T16:13:41.339Z,26.41
2023-04-19T16:19:03.198Z,26.79
2023-04-19T16:24:24.974Z,26.45
2023-04-19T16:29:46.754Z,26.86
2023-04-19T16:35:09.460Z,27.12
2023-04-19T16:40:31.243Z,27.23
2023-04-19T16:45:53.809Z,27.49
2023-04-19T16:51:15.649Z,27.30
2023-04-19T16:56:37.458Z,27.37
2023-04-19T17:02:02.312Z,27.24
2023-04-19T17:07:24.658Z,27.31
2023-04-19T17:12:46.512Z,27.23
2023-04-19T17:18:08.680Z,27.16
2023-04-19T17:23:30.649Z,27.20
2023-04-19T17:28:52.445Z,27.56
2023-04-19T17:34:14.640Z,27.14
2023-04-19T17:39:36.456Z,27.37
2023-04-19T17:44:59.421Z,27.15
2023-04-19T17:50:21.511Z,27.17
2023-04-19T17:55:43.471Z,27.21
2023-04-19T18:01:06.808Z,27.78
2023-04-19T18:06:28.734Z,27.87
2023-04-19T18:11:50.510Z,27.84
2023-04-19T18:17:15.316Z,27.76
2023-04-19T18:22:37.565Z,28.28
2023-04-19T18:27:59.720Z,28.19
2023-04-19T18:33:25.505Z,27.87
2023-04-19T18:38:47.295Z,28.28
2023-04-19T18:49:34.257Z,28.12
2023-04-19T18:54:58.525Z,28.40
2023-04-19T19:00:22.169Z,28.22
2023-04-19T19:05:44.418Z,28.37
2023-04-19T19:11:29.118Z,28.26
2023-04-19T19:16:51.950Z,27.78
2023-04-19T19:22:25.740Z,27.65
2023-04-19T19:33:19.510Z,27.54
2023-04-19T19:38:41.439Z,28.20
2023-04-19T19:44:03.185Z,27.98
2023-04-19T19:49:25.046Z,28.12
2023-04-19T19:54:47.121Z,28.04
2023-04-19T20:00:36.634Z,28.20
2023-04-19T20:05:57.457Z,28.25
2023-04-19T20:11:19.394Z,28.41
2023-04-19T20:16:41.259Z,28.55
2023-04-19T20:22:03.289Z,28.58
2023-04-19T20:27:25.069Z,28.11
2023-04-19T20:32:48.677Z,27.99
2023-04-19T20:38:10.582Z,28.33
2023-04-19T20:43:32.754Z,28.32
2023-04-19T20:48:56.230Z,28.28
2023-04-19T20:54:18.993Z,28.28
2023-04-19T20:59:41.300Z,28.15
2023-04-19T21:05:03.564Z,28.23
2023-04-19T21:10:25.479Z,28.66
2023-04-19T21:15:47.604Z,28.68
2023-04-19T21:21:09.676Z,28.58
2023-04-19T21:26:31.647Z,28.76
2023-04-19T21:31:53.609Z,28.93
2023-04-19T21:37:16.655Z,28.79
2023-04-19T21:42:38.563Z,28.87
2023-04-19T21:48:00.541Z,29.23
2023-04-19T21:53:22.360Z,29.14
2023-04-19T21:58:44.235Z,28.98
2023-04-19T22:04:06.207Z,28.63
2023-04-19T22:09:28.674Z,28.74
2023-04-19T22:14:51.420Z,28.98
2023-04-19T22:20:13.295Z,28.66
2023-04-19T22:25:35.170Z,28.84
2023-04-19T22:30:57.023Z,28.96
2023-04-19T22:36:18.967Z,28.74
2023-04-19T22:41:40.912Z,28.93
2023-04-19T22:47:03.651Z,28.66
2023-04-19T22:52:26.121Z,28.67
2023-04-19T22:57:47.941Z,28.66
2023-04-19T23:03:09.747Z,28.31
2023-04-19T23:08:33.663Z,28.50
2023-04-19T23:13:55.896Z,28.67
2023-04-19T23:19:18.332Z,28.66
2023-04-19T23:24:40.324Z,28.64
2023-04-19T23:30:04.186Z,28.52
2023-04-19T23:35:26.241Z,28.53
2023-04-19T23:40:48.044Z,28.39
2023-04-19T23:46:09.882Z,28.63
2023-04-19T23:51:33.059Z,28.22
2023-04-19T23:56:56.143Z,28.59
